createdAt,value
2023-05-22T00:00:46.087Z,82.6575
2023-05-22T00:08:00.567Z,82.4053
2023-05-22T00:11:05.458Z,83.1826
2023-05-22T00:12:08.201Z,83.5565
2023-05-22T00:13:11.427Z,83.5530
2023-05-22T00:15:11.824Z,83.9129
2023-05-22T00:16:14.520Z,83.9009
2023-05-22T00:17:17.392Z,84.0800
2023-05-22T00:18:20.072Z,83.7266
2023-05-22T00:19:23.707Z,85.0983
2023-05-22T00:20:24.448Z,85.7661
2023-05-22T00:21:27.170Z,86.1285
2023-05-22T00:28:39.804Z,89.9819
2023-05-22T00:29:40.826Z,90.3738
2023-05-22T00:30:41.802Z,90.6503
2023-05-22T00:32:43.498Z,90.6137
2023-05-22T00:33:46.206Z,90.9030
2023-05-22T00:34:53.742Z,91.5087
2023-05-22T00:42:04.786Z,92.5856
2023-05-22T00:43:05.200Z,92.8466
2023-05-22T00:45:07.709Z,93.2289
2023-05-22T00:46:11.206Z,93.4569
2023-05-22T00:48:11.149Z,93.1579
2023-05-22T00:49:13.892Z,92.8142
2023-05-22T00:50:16.640Z,92.7140
2023-05-22T00:51:20.491Z,92.2535
2023-05-22T00:52:20.623Z,91.8012
2023-05-22T00:53:22.758Z,91.3634
2023-05-22T00:54:25.516Z,91.2857
2023-05-22T00:55:28.930Z,90.9838
2023-05-22T00:56:36.175Z,90.5602
2023-05-22T00:57:30.108Z,90.2891
2023-05-22T00:58:39.684Z,89.9107
2023-05-22T01:04:03.495Z,88.2828
2023-05-22T01:04:48.272Z,88.1818
2023-05-22T01:08:53.457Z,87.8950
2023-05-22T01:09:53.281Z,87.8313
2023-05-22T01:10:57.082Z,87.7866
2023-05-22T01:11:59.856Z,87.3560
2023-05-22T01:13:02.799Z,87.4690
2023-05-22T01:15:05.287Z,86.7640
2023-05-22T01:16:08.113Z,87.7227
2023-05-22T01:18:14.408Z,86.7733
2023-05-22T01:30:39.492Z,90.0310
2023-05-22T01:31:41.329Z,89.5481
2023-05-22T01:32:41.596Z,89.2139
2023-05-22T01:47:11.972Z,92.1393
2023-05-22T01:48:15.620Z,92.0067
2023-05-22T01:55:28.451Z,91.8047
2023-05-22T01:56:29.033Z,91.4416
2023-05-22T01:57:29.046Z,92.1080
2023-05-22T01:58:31.870Z,92.2373
2023-05-22T01:59:31.901Z,92.5224
2023-05-22T02:00:34.673Z,93.2569
2023-05-22T02:01:37.515Z,93.2790
2023-05-22T02:02:37.653Z,93.1545
2023-05-22T02:03:38.507Z,93.2663
2023-05-22T02:06:44.389Z,92.3182
2023-05-22T02:07:44.838Z,93.4067
2023-05-22T02:08:45.123Z,93.7058
2023-05-22T02:10:50.632Z,94.7996
2023-05-22T02:11:50.681Z,94.8923
2023-05-22T02:12:51.267Z,94.3735
2023-05-22T02:14:54.047Z,93.0824
2023-05-22T02:15:54.737Z,94.0024
2023-05-22T02:16:55.477Z,93.3549
2023-05-22T02:18:58.081Z,92.9053
2023-05-22T02:20:00.933Z,91.9102
2023-05-22T02:21:03.708Z,90.8609
2023-05-22T02:22:07.888Z,91.1390
2023-05-22T02:29:18.585Z,92.8461
2023-05-22T02:30:19.107Z,93.6497
2023-05-22T02:31:20.468Z,93.9549
2023-05-22T02:32:21.251Z,91.9624
2023-05-22T02:33:21.843Z,90.3407
2023-05-22T02:36:24.839Z,91.5831
2023-05-22T02:37:25.633Z,91.1490
2023-05-22T02:38:28.588Z,92.6626
2023-05-22T02:39:32.081Z,92.6816
2023-05-22T02:40:32.121Z,93.0052
2023-05-22T02:47:42.958Z,91.7247
2023-05-22T02:48:43.945Z,91.4351
2023-05-22T02:50:47.307Z,91.9543
2023-05-22T02:51:47.382Z,92.5001
2023-05-22T02:52:48.078Z,90.4323
2023-05-22T02:53:48.973Z,90.0593
2023-05-22T02:54:49.085Z,90.8494
2023-05-22T02:55:52.593Z,91.4394
2023-05-22T02:56:53.186Z,90.5229
2023-05-22T03:07:11.669Z,90.9192
2023-05-22T03:09:12.070Z,92.6506
2023-05-22T03:10:14.895Z,92.2349
2023-05-22T03:11:17.744Z,92.3235
2023-05-22T03:12:21.298Z,93.4605
2023-05-22T03:13:21.367Z,94.3023
2023-05-22T03:14:24.179Z,94.8741
2023-05-22T03:15:27.109Z,94.5784
2023-05-22T03:16:28.177Z,95.4401
2023-05-22T03:17:28.845Z,95.4917
2023-05-22T03:26:38.425Z,92.9002
2023-05-22T03:27:39.790Z,92.6145
2023-05-22T03:28:40.060Z,92.7673
2023-05-22T03:29:41.137Z,94.2612
2023-05-22T03:38:58.041Z,95.0012
2023-05-22T03:39:58.105Z,94.5180
2023-05-22T03:40:59.438Z,94.3574
2023-05-22T03:42:01.997Z,94.6419
2023-05-22T03:43:02.104Z,94.7124
2023-05-22T03:45:04.476Z,95.6977
2023-05-22T03:46:05.050Z,96.0776
2023-05-22T03:47:05.672Z,95.9174
2023-05-22T03:48:05.785Z,95.9776
2023-05-22T03:49:08.599Z,96.2655
2023-05-22T03:50:10.585Z,96.5450
2023-05-22T03:51:30.342Z,96.5984
2023-05-22T03:57:24.609Z,95.3674
2023-05-22T03:58:27.544Z,94.2845
2023-05-22T03:59:31.030Z,93.4034
2023-05-22T04:00:32.999Z,93.3102
2023-05-22T04:01:32.874Z,92.7618
2023-05-22T04:02:36.368Z,92.0381
2023-05-22T04:03:37.000Z,92.1041
2023-05-22T04:06:42.788Z,92.5067
2023-05-22T04:10:51.954Z,95.2047
2023-05-22T04:12:55.041Z,95.5981
2023-05-22T04:13:55.585Z,95.7123
2023-05-22T04:24:12.235Z,92.3781
2023-05-22T04:25:13.340Z,92.5397
2023-05-22T04:31:28.695Z,91.2038
2023-05-22T04:46:58.645Z,93.4941
2023-05-22T04:48:01.467Z,93.7033
2023-05-22T04:49:04.912Z,93.7798
2023-05-22T04:50:05.348Z,94.2094
2023-05-22T04:58:22.021Z,92.8157
2023-05-22T05:01:27.203Z,92.0362
2023-05-22T05:02:30.064Z,93.0258
2023-05-22T05:03:33.398Z,92.0187
2023-05-22T05:09:41.838Z,87.6790
2023-05-22T05:10:44.654Z,85.0356
2023-05-22T05:11:47.434Z,84.2096
2023-05-22T05:12:50.201Z,81.6199
2023-05-22T05:13:52.975Z,79.7292
2023-05-22T05:14:55.703Z,78.9303
2023-05-22T05:15:59.120Z,77.5877
2023-05-22T05:17:01.085Z,74.8764
2023-05-22T05:18:01.733Z,74.4885
2023-05-22T05:19:02.430Z,75.2454
2023-05-22T05:21:06.353Z,75.2437
2023-05-22T05:22:07.793Z,75.1566
2023-05-22T05:23:07.833Z,73.9658
2023-05-22T05:25:11.828Z,72.2317
2023-05-22T05:26:12.378Z,72.4019
2023-05-22T05:29:20.690Z,73.3088
2023-05-22T05:30:20.933Z,75.2081
2023-05-22T05:32:23.750Z,74.4462
2023-05-22T05:33:23.752Z,72.7760
2023-05-22T05:37:32.227Z,69.0921
2023-05-22T05:38:32.309Z,69.6265
2023-05-22T05:39:35.126Z,64.9770
2023-05-22T05:41:38.116Z,65.9394
2023-05-22T05:42:39.326Z,65.7952
2023-05-22T05:43:42.187Z,65.8197
2023-05-22T05:44:42.195Z,64.9554
2023-05-22T05:45:42.282Z,66.2030
2023-05-22T05:46:45.146Z,70.6188
2023-05-22T05:49:51.781Z,61.8769
2023-05-22T05:57:03.487Z,61.2025
2023-05-22T05:58:04.395Z,63.0605
2023-05-22T06:04:11.158Z,68.6892
2023-05-22T06:05:11.268Z,67.8396
2023-05-22T06:06:14.057Z,67.5129
2023-05-22T06:07:16.839Z,66.1105
2023-05-22T06:08:16.964Z,65.7451
2023-05-22T06:15:28.557Z,64.3556
2023-05-22T06:16:29.209Z,61.3428
2023-05-22T06:18:32.210Z,60.5742
2023-05-22T06:19:33.064Z,59.9125
2023-05-22T06:20:33.049Z,62.2237
2023-05-22T06:22:39.315Z,60.6232
2023-05-22T06:23:39.829Z,60.1399
2023-05-22T06:27:49.408Z,65.3969
2023-05-22T06:32:58.197Z,63.2078
2023-05-22T06:39:11.726Z,67.1783
2023-05-22T06:40:36.753Z,65.7594
2023-05-22T06:41:16.758Z,67.2335
2023-05-22T06:44:22.711Z,63.6362
2023-05-22T06:48:29.056Z,67.0994
2023-05-22T06:49:29.124Z,67.6746
2023-05-22T06:51:32.518Z,65.1110
2023-05-22T06:52:33.366Z,63.3109
2023-05-22T06:58:42.388Z,64.9570
2023-05-22T06:59:42.440Z,66.9225
2023-05-22T07:00:45.225Z,64.4083
2023-05-22T07:01:48.082Z,64.7421
2023-05-22T07:02:49.491Z,65.4907
2023-05-22T07:03:49.994Z,65.3808
2023-05-22T07:06:53.904Z,64.1869
2023-05-22T07:24:36.629Z,66.4631
2023-05-22T07:53:46.369Z,65.2498
2023-05-22T08:08:23.121Z,61.1943
2023-05-22T08:09:25.935Z,60.0198
2023-05-22T08:10:37.250Z,61.6709
2023-05-22T08:28:14.199Z,60.0487
2023-05-22T08:38:40.859Z,57.8836
2023-05-22T08:39:43.576Z,56.4189
2023-05-22T08:40:46.652Z,57.0885
2023-05-22T08:41:46.551Z,57.6068
2023-05-22T08:46:59.844Z,55.3207
2023-05-22T08:54:15.532Z,54.4355
2023-05-22T09:05:39.869Z,55.6739
2023-05-22T09:06:39.911Z,56.6702
2023-05-22T09:07:42.739Z,56.4452
2023-05-22T09:13:55.862Z,54.7588
2023-05-22T09:14:58.596Z,51.5935
2023-05-22T09:16:01.296Z,53.6328
2023-05-22T09:17:04.131Z,55.9251
2023-05-22T09:28:30.034Z,53.8459
2023-05-22T09:29:32.816Z,53.3992
2023-05-22T09:30:35.579Z,52.8033
2023-05-22T09:31:38.403Z,53.9361
2023-05-22T09:37:51.434Z,51.9001
2023-05-22T09:44:04.368Z,48.4288
2023-05-22T09:45:07.135Z,49.5647
2023-05-22T09:46:09.955Z,51.8193
2023-05-22T09:53:25.205Z,51.7854
2023-05-22T09:56:39.199Z,53.0039
2023-05-22T09:57:35.837Z,53.5445
2023-05-22T09:58:38.558Z,53.1058
2023-05-22T09:59:41.310Z,51.5457
2023-05-22T10:00:44.055Z,50.6513
2023-05-22T10:01:46.857Z,48.3175
2023-05-22T10:23:37.525Z,46.7576
2023-05-22T10:24:40.226Z,46.6806
2023-05-22T10:25:42.926Z,47.6531
2023-05-22T10:26:45.668Z,50.0960
2023-05-22T10:32:58.503Z,47.9035
2023-05-22T10:36:03.521Z,51.5247
2023-05-22T10:49:34.582Z,50.0059
2023-05-22T11:06:15.960Z,46.1771
2023-05-22T11:07:18.659Z,48.0862
2023-05-22T11:08:21.405Z,48.6956
2023-05-22T11:40:35.053Z,48.2713
2023-05-22T11:48:49.767Z,44.7119
2023-05-22T11:49:52.407Z,43.0199
2023-05-22T11:50:52.152Z,43.6297
2023-05-22T11:51:54.805Z,42.9871
2023-05-22T11:57:04.682Z,46.9958
2023-05-22T12:46:50.883Z,42.2950
2023-05-22T12:49:53.066Z,44.6775
2023-05-22T13:21:02.675Z,42.8025
2023-05-22T13:45:53.966Z,44.3683
2023-05-22T14:05:33.439Z,38.1752
2023-05-22T14:06:34.805Z,39.4444
2023-05-22T14:07:35.097Z,38.1252
2023-05-22T14:08:35.493Z,36.9960
2023-05-22T14:09:36.010Z,37.8548
2023-05-22T14:10:36.363Z,40.7602
2023-05-22T14:11:37.668Z,44.9438
2023-05-22T14:23:45.288Z,39.0652
2023-05-22T14:25:48.383Z,39.1815
2023-05-22T14:30:54.454Z,43.2132
2023-05-22T14:52:44.491Z,37.5256
2023-05-22T14:53:47.082Z,36.6645
2023-05-22T14:58:57.028Z,36.8712
2023-05-22T15:00:59.259Z,36.2267
2023-05-22T15:19:41.417Z,39.8042
2023-05-22T15:24:45.660Z,43.4877
2023-05-22T15:32:00.549Z,44.4035
2023-05-22T15:46:33.807Z,45.0724
2023-05-22T15:49:38.949Z,45.7779
2023-05-22T16:32:15.362Z,38.6600
2023-05-22T16:34:17.862Z,38.9324
2023-05-22T17:26:05.316Z,39.7358
2023-05-22T17:44:36.498Z,49.1255
2023-05-22T18:00:03.646Z,53.9367
2023-05-22T18:12:31.627Z,56.5223
2023-05-22T18:21:41.109Z,58.7237
2023-05-22T18:22:42.158Z,58.1643
2023-05-22T18:23:42.093Z,61.5017
2023-05-22T18:25:55.860Z,62.4871
2023-05-22T18:27:47.903Z,60.5105
2023-05-22T18:28:48.391Z,59.2634
2023-05-22T18:32:57.147Z,65.2795
2023-05-22T18:37:00.150Z,63.9113
2023-05-22T18:39:03.376Z,65.1161
2023-05-22T18:40:03.992Z,63.9568
2023-05-22T18:41:04.815Z,63.0074
2023-05-22T18:42:05.388Z,62.2174
2023-05-22T18:43:05.533Z,65.3565
2023-05-22T18:44:05.903Z,66.3953
2023-05-22T18:45:06.968Z,68.0538
2023-05-22T18:46:08.043Z,68.1773
2023-05-22T18:47:09.025Z,68.8142
2023-05-22T18:49:10.275Z,67.7143
2023-05-22T18:50:10.388Z,66.0970
2023-05-22T18:51:10.949Z,67.3043
2023-05-22T18:52:12.226Z,67.4786
2023-05-22T18:53:12.315Z,64.4886
2023-05-22T18:54:12.777Z,66.1273
2023-05-22T19:02:17.970Z,69.6383
2023-05-22T19:03:18.956Z,69.7678
2023-05-22T19:04:19.723Z,67.4149
2023-05-22T19:05:19.832Z,66.1583
2023-05-22T19:06:19.770Z,66.4074
2023-05-22T19:07:19.832Z,65.9635
2023-05-22T19:08:20.254Z,69.5431
2023-05-22T19:09:20.609Z,71.5967
2023-05-22T19:10:20.757Z,72.8830
2023-05-22T19:11:20.900Z,71.0887
2023-05-22T19:12:20.909Z,68.5107
2023-05-22T19:13:21.212Z,69.5948
2023-05-22T19:14:21.653Z,69.5728
2023-05-22T19:15:21.611Z,68.7877
2023-05-22T19:32:54.890Z,78.5969
2023-05-22T19:33:55.113Z,77.0529
2023-05-22T19:37:59.876Z,75.7459
2023-05-22T19:40:00.411Z,77.1328
2023-05-22T19:41:00.966Z,77.9006
2023-05-22T19:42:01.394Z,80.4325
2023-05-22T19:43:02.071Z,80.3617
2023-05-22T19:44:02.686Z,78.9403
2023-05-22T19:45:03.277Z,78.2803
2023-05-22T19:46:05.410Z,78.9647
2023-05-22T19:47:04.736Z,80.7577
2023-05-22T19:48:06.491Z,80.9754
2023-05-22T19:49:06.990Z,81.4389
2023-05-22T19:50:08.396Z,81.1153
2023-05-22T19:51:08.970Z,81.4004
2023-05-22T19:52:09.106Z,79.9268
2023-05-22T19:53:09.904Z,79.6326
2023-05-22T19:54:10.578Z,79.2861
2023-05-22T19:55:10.960Z,79.3238
2023-05-22T19:56:12.585Z,78.8115
2023-05-22T19:57:13.227Z,80.6640
2023-05-22T19:58:13.797Z,81.5035
2023-05-22T19:59:14.022Z,82.5033
2023-05-22T20:00:14.999Z,82.8373
2023-05-22T20:01:14.993Z,81.7360
2023-05-22T20:02:15.151Z,80.7273
2023-05-22T20:03:15.367Z,81.6369
2023-05-22T20:04:15.365Z,79.4107
2023-05-22T20:05:16.390Z,79.2622
2023-05-22T20:06:17.680Z,80.0423
2023-05-22T20:07:18.814Z,81.5114
2023-05-22T20:08:19.149Z,82.3328
2023-05-22T20:09:19.975Z,83.0945
2023-05-22T20:10:20.535Z,83.8233
2023-05-22T20:11:20.661Z,81.8939
2023-05-22T20:12:21.426Z,80.5572
2023-05-22T20:15:25.852Z,81.2486
2023-05-22T20:16:29.419Z,80.7653
2023-05-22T20:19:35.918Z,80.9602
2023-05-22T20:20:33.529Z,81.5967
2023-05-22T20:26:43.364Z,81.6060
2023-05-22T20:27:43.831Z,80.9081
2023-05-22T20:30:47.203Z,82.6098
2023-05-22T20:31:47.735Z,81.9145
2023-05-22T20:33:50.382Z,80.4774
2023-05-22T20:34:53.961Z,80.7666
2023-05-22T20:42:00.528Z,80.9107
2023-05-22T20:43:00.671Z,81.4948
2023-05-22T20:44:01.061Z,81.5947
2023-05-22T20:45:01.127Z,81.4251
2023-05-22T20:46:01.973Z,81.4643
2023-05-22T20:47:02.728Z,79.6465
2023-05-22T20:48:02.979Z,79.9259
2023-05-22T20:49:03.766Z,82.0106
2023-05-22T20:50:04.274Z,82.2050
2023-05-22T20:51:04.402Z,82.2240
2023-05-22T20:52:05.176Z,81.3197
2023-05-22T20:53:06.507Z,83.6294
2023-05-22T20:55:07.069Z,82.3509
2023-05-22T21:10:32.008Z,86.8613
2023-05-22T21:11:32.753Z,87.5768
2023-05-22T21:12:33.499Z,88.1878
2023-05-22T21:16:40.656Z,88.2526
2023-05-22T21:17:41.712Z,87.8820
2023-05-22T21:18:41.838Z,86.0002
2023-05-22T21:19:41.843Z,86.4865
2023-05-22T21:20:41.919Z,87.5146
2023-05-22T21:21:42.867Z,87.6890
2023-05-22T21:25:46.227Z,85.5761
2023-05-22T21:36:04.138Z,87.3692
2023-05-22T21:37:04.917Z,88.3894
2023-05-22T21:38:05.293Z,88.8884
2023-05-22T21:39:06.029Z,89.2773
2023-05-22T21:40:06.909Z,89.1843
2023-05-22T21:43:13.131Z,87.3962
2023-05-22T21:44:13.671Z,87.4808
2023-05-22T21:49:21.289Z,86.3201
2023-05-22T21:50:22.199Z,86.2097
2023-05-22T21:51:22.329Z,85.9899
2023-05-22T21:52:23.456Z,86.0829
2023-05-22T21:53:23.962Z,86.3486
2023-05-22T21:54:24.145Z,86.7512
2023-05-22T21:55:24.725Z,86.4912
2023-05-22T21:56:25.121Z,86.5489
2023-05-22T21:58:28.284Z,87.3556
2023-05-22T21:59:28.882Z,87.4570
2023-05-22T22:00:28.809Z,86.7800
2023-05-22T22:01:29.840Z,86.4641
2023-05-22T22:02:30.606Z,85.8685
2023-05-22T22:03:30.895Z,85.3445
2023-05-22T22:04:31.144Z,85.2864
2023-05-22T22:05:31.155Z,84.8090
2023-05-22T22:06:31.946Z,84.7066
2023-05-22T22:07:31.964Z,84.9057
2023-05-22T22:08:32.663Z,84.6402
2023-05-22T22:09:32.825Z,84.7515
2023-05-22T22:10:33.470Z,84.9125
2023-05-22T22:11:33.707Z,84.7465
2023-05-22T22:12:34.331Z,85.0359
2023-05-22T22:13:35.570Z,85.0821
2023-05-22T22:14:35.812Z,85.7859
2023-05-22T22:15:36.398Z,86.3159
2023-05-22T22:16:37.287Z,86.1030
2023-05-22T22:17:38.038Z,85.7803
2023-05-22T22:18:38.242Z,86.2361
2023-05-22T22:19:38.474Z,86.5152
2023-05-22T22:23:42.219Z,86.1305
2023-05-22T22:24:42.237Z,86.6548
2023-05-22T22:25:42.466Z,86.9282
2023-05-22T22:26:42.470Z,87.3812
2023-05-22T22:27:42.966Z,87.6755
2023-05-22T22:28:43.760Z,87.8342
2023-05-22T22:29:44.507Z,87.7252
2023-05-22T22:30:45.165Z,87.8196
2023-05-22T22:34:49.136Z,87.6075
2023-05-22T22:37:53.144Z,90.0887
2023-05-22T22:40:56.734Z,90.8181
2023-05-22T22:41:56.728Z,90.1736
2023-05-22T22:47:05.965Z,88.4273
2023-05-22T22:48:07.401Z,88.3617
2023-05-22T22:49:08.531Z,88.1758
2023-05-22T22:54:18.708Z,88.7813
2023-05-22T22:55:18.848Z,88.9906
2023-05-22T22:56:19.779Z,89.0165
2023-05-22T22:57:20.607Z,89.7049
2023-05-22T22:58:20.655Z,90.5470
2023-05-22T22:59:20.672Z,89.6043
2023-05-22T23:00:20.743Z,89.5489
2023-05-22T23:01:20.816Z,89.7690
2023-05-22T23:02:21.857Z,90.2677
2023-05-22T23:03:22.599Z,91.0367
2023-05-22T23:04:22.851Z,91.7339
2023-05-22T23:05:23.757Z,91.7282
2023-05-22T23:06:23.760Z,92.1444
2023-05-22T23:07:23.757Z,92.1059
2023-05-22T23:08:23.850Z,92.4329
2023-05-22T23:09:23.878Z,92.3256
2023-05-22T23:11:25.521Z,92.1012
2023-05-22T23:12:25.544Z,92.5241
2023-05-22T23:13:26.639Z,93.2167
2023-05-22T23:14:28.202Z,93.5087
2023-05-22T23:15:28.196Z,93.7713
2023-05-22T23:16:29.213Z,94.1992
2023-05-22T23:17:30.155Z,94.0823
2023-05-22T23:18:30.193Z,93.6217
2023-05-22T23:19:30.969Z,92.9525
2023-05-22T23:20:31.015Z,92.6464
2023-05-22T23:21:31.869Z,92.7820
2023-05-22T23:22:31.924Z,92.8545
2023-05-22T23:23:32.689Z,92.5114
2023-05-22T23:24:33.594Z,92.6286
2023-05-22T23:25:33.654Z,93.4858
2023-05-22T23:26:34.184Z,93.2943
2023-05-22T23:27:34.222Z,92.7310
2023-05-22T23:28:34.295Z,92.7279
2023-05-22T23:29:35.151Z,93.6111
2023-05-22T23:30:35.219Z,94.3749
2023-05-22T23:31:35.298Z,94.6515
2023-05-22T23:32:35.399Z,94.1317
2023-05-22T23:33:35.416Z,93.2973
2023-05-22T23:34:35.613Z,93.1008
2023-05-22T23:35:35.716Z,93.1741
2023-05-22T23:36:36.550Z,93.3957
2023-05-22T23:37:36.611Z,93.4826
2023-05-22T23:38:36.672Z,93.7412
2023-05-22T23:39:36.764Z,93.5590
2023-05-22T23:40:36.793Z,93.4002
2023-05-22T23:41:36.803Z,92.8926
2023-05-22T23:42:40.327Z,92.8394
2023-05-22T23:43:40.980Z,92.4594
2023-05-22T23:44:41.035Z,92.2750
2023-05-22T23:45:41.955Z,91.9918
2023-05-22T23:46:42.128Z,91.5314
2023-05-22T23:47:43.327Z,91.6602
2023-05-22T23:48:43.374Z,91.6529
2023-05-22T23:49:44.116Z,91.3932
2023-05-22T23:50:44.905Z,91.3977
2023-05-22T23:51:44.981Z,90.6220
2023-05-22T23:52:45.675Z,90.2470
2023-05-22T23:53:45.725Z,89.6212
2023-05-22T23:54:46.560Z,88.8246
2023-05-22T23:55:46.610Z,88.4470
2023-05-22T23:56:46.673Z,87.9420
2023-05-22T23:57:46.762Z,88.0116
2023-05-22T23:58:46.821Z,87.3681
2023-05-22T23:59:47.694Z,87.7516
